LiveATC.Net - Listen to live air traffic control over the Internet!
Airport/ARTCC Code
Frequency Search
(e.g., 124.400, 128.75)
Site-wide search
 


Browse LiveATC Feeds
Top 50 LiveATC Feeds
LiveATC Feed Map
Bad Weather Areas

LiveATC FAQ
Offer LiveATC feed
Contact LiveATC.net
Press Inquiries

LiveATC on iPhone
LiveATC on Android

Windows Phone
Windows 8/10

LiveATC Mobile
(Mobile browser)

ATC Audio Archives
Interesting Recordings

LiveATC Forums

Home Page
About LiveATC.net
Make a Donation
Terms of Use
Privacy Policy

Canadian Air Freqs

AIRMETs/SIGMETs

FAA Airport Status
Nat'l Airspace Status
Arrival Demand Charts


Server Software By:
Icecast.org
Liquidsoap

Select an area of interest:
U.S. Feeds: Class B Airports | Class C Airports | Class D/Other Airports | ARTCC (Centers)
International Feeds: Canada | Europe | Oceania | Asia | South America | North/Central America | Africa
Misc Feeds: HF Feeds
Search by ICAO/IATA airport code:   (e.g., kbos, kjfk, lax, eham, etc.)


Currently Available Live Feeds: 2448
Status Updated: Thu Sep 19 2019 09:41:04 UTC


NOTICE

Unauthorized use prohibited. See LiveATC.net Terms of Service

North and Central America Airport Feeds

 

MMAN Tower (Archives)
Monterrey, Mexico

Feed Status: UP
Listen in your browser - HTML5 player(in browser, HTML5)
Click here to listen with your own player(launches your MP3 player)

MMAN 190440Z 12006KT 6SM SKC 26/23 A2995 RMK HZY

MMAN Flight Activity (Flightaware)

Listeners: 0 out of 747 total

Monterrey Tower: 118.600

MMCU Twr/App (Archives)
Chihuahua, Mexico

Feed Status: UP
Listen in your browser - HTML5 player(in browser, HTML5)
Click here to listen with your own player(launches your MP3 player)

MMCU 190240Z 06004KT 10SM SCT030 BKN080 BKN200 23/15 A3012 RMK SLP076 52014 904 8/463 VC CB

MMCU Flight Activity (Flightaware)

Listeners: 0 out of 747 total

Chihuahua Approach: 121.000
Chihuahua Tower: 118.400

MMGL Twr/App (Archives)
Guadalajara, Mexico

Feed Status: UP
Listen in your browser - HTML5 player(in browser, HTML5)
Click here to listen with your own player(launches your MP3 player)

MMGL 190845Z 12007KT 10SM BKN100 OVC300 19/14 A3014 RMK SLP080 57008 956 8/077

MMGL Flight Activity (Flightaware)

Listeners: 0 out of 747 total

Guadalajara Approach: 120.800
Guadalajara Tower: 118.100

MMHO App/Dep (Archives)
Hermosillo, Mexico

Feed Status: UP
Listen in your browser - HTML5 player(in browser, HTML5)
Click here to listen with your own player(launches your MP3 player)

MMHO 190840Z 33003KT 10SM SKC 27/25 A2985 RMK SLP099 52001 958 HZY

MMHO Flight Activity (Flightaware)

Listeners: 0 out of 747 total

Hermosillo Approach/Departure: 121.400

MMHO Tower (Archives)
Hermosillo, Mexico

Feed Status: UP
Listen in your browser - HTML5 player(in browser, HTML5)
Click here to listen with your own player(launches your MP3 player)

MMHO 190840Z 33003KT 10SM SKC 27/25 A2985 RMK SLP099 52001 958 HZY

MMHO Flight Activity (Flightaware)

Listeners: 0 out of 747 total

Hermosillo Tower: 118.700

MMLP Twr/App/Center (Archives)
La Paz, Mexico

Feed Status: UP
Listen in your browser - HTML5 player(in browser, HTML5)
Click here to listen with your own player(launches your MP3 player)

MMLP 190440Z 16007KT 10SM SKC 28/18 A2985 RMK ISOL CI

MMLP Flight Activity (Flightaware)

Listeners: 0 out of 747 total

La Paz Approach: 120.600
La Paz Tower: 118.100
Mazatlan Center: 128.000
Mazatlan Center: 124.400
Mazatlan Center: 128.300
Mazatlan Center: 124.200
Mazatlan Center: 126.300
Mazatlan Center: 126.500
San Jose Approach: 120.900

MMMD Tower/Approach (Archives)
Merida, Mexico

Feed Status: UP
Listen in your browser - HTML5 player(in browser, HTML5)
Click here to listen with your own player(launches your MP3 player)

MMMD 190845Z 00000KT 7SM SKC 26/25 A2989 RMK SLP126 57011 963 CI

MMMD Flight Activity (Flightaware)

Listeners: 0 out of 747 total

Merida Approach: 121.200
Merida Tower: 118.300

MMMM Tower (Archives)
Morelia, Mexico

Feed Status: UP
Listen in your browser - HTML5 player(in browser, HTML5)
Click here to listen with your own player(launches your MP3 player)

MMMM 190851Z 20003KT 7SM BKN025 BKN080 OVC200 15/15 A3022 RMK SLP099 57009 901 8/577 HZY

MMMM Flight Activity (Flightaware)

Listeners: 0 out of 747 total

Morelia Tower: 118.500

MMMX Approach (Archives)
Mexico City, Mexico

Feed Status: UP
Listen in your browser - HTML5 player(in browser, HTML5)
Click here to listen with your own player(launches your MP3 player)

MMMX 190846Z 06005KT 8SM SCT020 SCT080 BKN220 15/14 A3032 NOSIG RMK SLP096 57008 905 8/538 HZY

MMMX Flight Activity (Flightaware)

Listeners: 1 out of 747 total

Mexico City Approach: 121.200

MMMX Twr/App (Archives)
Mexico City, Mexico

Feed Status: UP
Listen in your browser - HTML5 player(in browser, HTML5)
Click here to listen with your own player(launches your MP3 player)

MMMX 190846Z 06005KT 8SM SCT020 SCT080 BKN220 15/14 A3032 NOSIG RMK SLP096 57008 905 8/538 HZY

MMMX Flight Activity (Flightaware)

Listeners: 4 out of 747 total

Mexico City Approach: 121.200
Mexico City Final Approach: 119.750
Mexico City Helicopters: 118.150
Mexico City Terminal: 129.600
Mexico City Tower: 118.550

MMMY Tower/Approach (Archives)
Monterrey, Mexico

Feed Status: UP
Listen in your browser - HTML5 player(in browser, HTML5)
Click here to listen with your own player(launches your MP3 player)

MMMY 190843Z 08004KT 10SM SKC 24/23 A2986 RMK SLP/// 5//// 9//

MMMY Flight Activity (Flightaware)

Listeners: 0 out of 747 total

Monterrey Approach/Departure: 119.750
Monterrey Tower: 118.100

MMQT Tower/App (Archives)
Queretaro, Mexico

Feed Status: UP
Listen in your browser - HTML5 player(in browser, HTML5)
Click here to listen with your own player(launches your MP3 player)

MMQT 190845Z 00000KT 6SM SCT020 BKN100 16/15 A3028 RMK 8/460

MMQT Flight Activity (Flightaware)

Listeners: 0 out of 747 total

Queretaro Approach: 127.200
Queretaro Tower: 118.950

MMSP Gnd/Twr/App/Center (Archives)
San Luis Potosi, Mexico

Feed Status: UP
Listen in your browser - HTML5 player(in browser, HTML5)
Click here to listen with your own player(launches your MP3 player)

MMSP 190844Z 15004KT 8SM FEW025 16/14 A3021 RMK SLP089 57011 961 8/500 CI

MMSP Flight Activity (Flightaware)

Listeners: 0 out of 747 total

AMX Ground Ops: 131.000
Mexico Center (North, Sector 6): 126.000
Mexico Center (Northwest, Sector 7): 123.900
Mexico Center (West, Sector 5): 125.100
Potosi Approach: 127.500
Potosi Tower: 118.900
TAO Ground Ops: 133.600

MMTC Twr/App/Center (Archives)
Torreon, Mexico

Feed Status: UP
Listen in your browser - HTML5 player(in browser, HTML5)
Click here to listen with your own player(launches your MP3 player)

MMTC 190341Z 00000KT 10SM FEW100 30/13 A2998 RMK 8/030

MMTC Flight Activity (Flightaware)

Listeners: 0 out of 747 total

Mazatlan Center: 124.200
Mazatlan Center: 124.400
Mazatlan Center: 128.000
Mexico Center: 123.900
Monterrey Center: 125.600
Monterrey Center: 125.425
Monterrey Center: 127.400
Torreon Approach: 119.500
Torreon Tower: 118.500

MMTJ Approach (Archives)
Tijuana, Mexico

Feed Status: UP
Listen in your browser - HTML5 player(in browser, HTML5)
Click here to listen with your own player(launches your MP3 player)

MMTJ 190841Z 00000KT 6SM SKC 15/14 A2993 RMK SLP140 52002 952 HZY ST W

MMTJ Flight Activity (Flightaware)

Listeners: 0 out of 747 total

Tijuana Approach: 120.300

MMTJ Twr/Ramp (Archives)
Tijuana, Mexico

Feed Status: UP
Listen in your browser - HTML5 player(in browser, HTML5)
Click here to listen with your own player(launches your MP3 player)

MMTJ 190841Z 00000KT 6SM SKC 15/14 A2993 RMK SLP140 52002 952 HZY ST W

MMTJ Flight Activity (Flightaware)

Listeners: 0 out of 747 total

Tijuana Ramp: 126.100
Tijuana Tower: 118.100

MUFH Havana FIR (App/Center) (Archives)
Havana, Cuba

Feed Status: UP
Listen in your browser - HTML5 player(in browser, HTML5)
Click here to listen with your own player(launches your MP3 player)

MUFH Flight Activity (Flightaware)

Listeners: 0 out of 747 total

Hava Approach: 120.300
Havana Center: 120.250
Havana Center: 123.700
Havana Center: 124.550
Havana Center: 133.700
Havana Center: 135.100

TBPB Gnd/Twr/Radar/Center
Bridgetown, Barbados

Feed Status: DOWN
Offline since: 2019-09-19 05:00:22 UTC

TBPB 190900Z 07008KT 9999 BKN018 26/24 Q1009 NOSIG

Adams Approach/Departure: 129.350
Adams Approach/Departure: 128.850
Adams Ground: 121.900
Adams Tower: 118.700
Piarco Center: 123.700

TXKF Tower/Ground
Hamilton, Bermuda

Feed Status: DOWN
Offline since: 2019-09-18 21:47:40 UTC

TXKF 190855Z 34013KT 9999 VCSH FEW020 BKN080 OVC300 24/21 Q1005

Bermuda CTAF: 122.800
Bermuda Ground/Clearance: 124.500
Bermuda Tower: 118.100

ZNY Bermuda Sector
Hamilton, Bermuda

Feed Status: DOWN
Offline since: 2019-09-18 21:47:40 UTC

TXKF 190855Z 34013KT 9999 VCSH FEW020 BKN080 OVC300 24/21 Q1005

New York Approach (Bermuda Sector) : 119.100
New York Center (Bermuda Sector): 128.500

MGGT Gnd/Twr (Archives)
Guatemala City, Guatemala

Feed Status: UP
Listen in your browser - HTML5 player(in browser, HTML5)
Click here to listen with your own player(launches your MP3 player)

MGGT 190900Z 36010KT 9999 FEW015 SCT200 17/16 Q1024 A3024 CB/LTNG/DIST/SE

MGGT Flight Activity (Flightaware)

Listeners: 0 out of 747 total

Guatemala City Ground: 121.900
Guatemala City Tower: 118.100

MGGT Ground (Archives)
Guatemala City, Guatemala

Feed Status: UP
Listen in your browser - HTML5 player(in browser, HTML5)
Click here to listen with your own player(launches your MP3 player)

MGGT 190900Z 36010KT 9999 FEW015 SCT200 17/16 Q1024 A3024 CB/LTNG/DIST/SE

MGGT Flight Activity (Flightaware)

Listeners: 0 out of 747 total

Guatemala City Ground: 121.900

MGGT Tower (Archives)
Guatemala City, Guatemala

Feed Status: UP
Listen in your browser - HTML5 player(in browser, HTML5)
Click here to listen with your own player(launches your MP3 player)

MGGT 190900Z 36010KT 9999 FEW015 SCT200 17/16 Q1024 A3024 CB/LTNG/DIST/SE

MGGT Flight Activity (Flightaware)

Listeners: 0 out of 747 total

Guatemala City Tower: 118.100

MHLC Gnd/Twr/Center (Archives)
La Ceiba, Honduras

Feed Status: UP
Listen in your browser - HTML5 player(in browser, HTML5)
Click here to listen with your own player(launches your MP3 player)

MHLC 190600Z 13002KT 9999 FEW026 24/22 Q1012 A2989 NOSIG

MHLC Flight Activity (Flightaware)

Listeners: 0 out of 747 total

CENAMER: 123.900
CENAMER: 124.300
Goloson Ground: 121.900
Goloson Tower: 118.500
La Ceiba Radio: 128.900

MHRO Gnd/Twr/App/Center (Archives)
Roatan, Honduras

Feed Status: UP
Listen in your browser - HTML5 player(in browser, HTML5)
Click here to listen with your own player(launches your MP3 player)

MHRO 190600Z 33002KT 9999 FEW020 28/27 Q1012 A2989 NOSIG

MHRO Flight Activity (Flightaware)

Listeners: 0 out of 747 total

CENAMER (Center): 124.300
La Ceiba Radio: 128.900
Roatan Ground: 121.600
Roatan Tower: 118.100

MHTG ATIS (Archives)
Tegucigalpa, Honduras

Feed Status: UP
Listen in your browser - HTML5 player(in browser, HTML5)
Click here to listen with your own player(launches your MP3 player)

MHTG 190900Z 00000KT 8000 VCSH FEW020 BKN024 20/18 Q1019 A3009 NOSIG

MHTG Flight Activity (Flightaware)

Listeners: 0 out of 747 total

Toncontin ATIS: 127.750

MHTG Gnd/Twr/App/Ctr/Ops (Archives)
Tegucigalpa, Honduras

Feed Status: UP
Listen in your browser - HTML5 player(in browser, HTML5)
Click here to listen with your own player(launches your MP3 player)

MHTG 190900Z 00000KT 8000 VCSH FEW020 BKN024 20/18 Q1019 A3009 NOSIG

MHTG Flight Activity (Flightaware)

Listeners: 0 out of 747 total

American Airlines Ops: 130.700
ARINC ACARS: 131.550
Cenamer Center: 123.900
Cenamer Center: 124.300
Cenamer Center: 124.100
CMP Ops: 129.925
Continental Airlines Ops: 129.925
FAH Ground: 122.900
Taca Ops: 131.300
Taca Ops Sal: 130.300
Tecnologias Unidas: 133.000
Tegucigalpa RDO: 126.700
Toncontin Approach: 119.100
Toncontin Ground: 121.900
Toncontin Tower: 118.700

MROC Del/Gnd/Twr (Archives)
San Jose, Costa Rica

Feed Status: UP
Listen in your browser - HTML5 player(in browser, HTML5)
Click here to listen with your own player(launches your MP3 player)

MROC 190900Z VRB02KT CAVOK 18/17 A2997 NOSIG

MROC Flight Activity (Flightaware)

Listeners: 0 out of 747 total

Coco Clearance Delivery/Ground: 121.900
Coco Tower: 118.600

MROC Del/Gnd/Twr/App/Center/Misc (Archives)
San Jose, Costa Rica

Feed Status: UP
Listen in your browser - HTML5 player(in browser, HTML5)
Click here to listen with your own player(launches your MP3 player)

MROC 190900Z VRB02KT CAVOK 18/17 A2997 NOSIG

MROC Flight Activity (Flightaware)

Listeners: 2 out of 747 total

Central American Center (CENAMER Control): 124.100
Coco Center (Control over CR Airspace): 119.600
Coco Clearance Delivery: 121.300
Coco Ground: 121.900
Coco Terminal Control: 120.500
Coco Tower: 118.600
Coco UNICOM: 126.800
SYQ Ground: 121.700
SYQ Tower: 118.300

MSLP Gnd/Twr/App (Archives)
San Salvador, El Salvador

Feed Status: UP
Listen in your browser - HTML5 player(in browser, HTML5)
Click here to listen with your own player(launches your MP3 player)

MSLP 190850Z VRB01KT CAVOK 24/23 Q1009 A2981 NOSIG

MSLP Flight Activity (Flightaware)

Listeners: 0 out of 747 total

Comalapa Ground: 121.700
Comalapa Tower: 118.000
Compalapa Approach: 119.900

MSLP Gnd/Twr/App/Center (Archives)
San Salvador, El Salvador

Feed Status: UP
Listen in your browser - HTML5 player(in browser, HTML5)
Click here to listen with your own player(launches your MP3 player)

MSLP 190850Z VRB01KT CAVOK 24/23 Q1009 A2981 NOSIG

MSLP Flight Activity (Flightaware)

Listeners: 0 out of 747 total

Avianca Ops: 123.500
CCA: 119.300
CENAMER: 124.100
Comalapa Authorizations: 121.250
Comalapa Departure: 123.900
Comalapa Ground: 121.700
Comalapa Tower: 118.000
Compalapa Approach: 119.900
Ilopango Tower: 118.300
TACA Ops: 130.500

MSSS Tower (Archives)
San Salvador, El Salvador

Feed Status: UP
Listen in your browser - HTML5 player(in browser, HTML5)
Click here to listen with your own player(launches your MP3 player)

MSSS 190550Z 00000KT 9999 BKN23 FEW040CB 23/22 Q1014 A2997 RMK CB S DSTN CB LTGIC SE

MSSS Flight Activity (Flightaware)

Listeners: 0 out of 747 total

Ilopango Tower: 118.300